Time;durP1;ratioP1;P1;durP2;ratioP2;P2;SDS_P1;SDS_P2;PMS_P1;PMS_P2;Temp;Humidity;BMP_temperature;BMP_pressure;BME280_temperature;BME280_humidity;BME280_pressure;Samples;Min_cycle;Max_cycle;Signal;HPM_P1;HPM_P2
2022/10/23 00:00:53;;;;;;;16.02;7.47;;;13.20;99.90;;;;;;5100502;28;20073;-72
2022/10/23 00:03:18;;;;;;;12.68;6.88;;;13.20;99.90;;;;;;5118547;28;20035;-73
2022/10/23 00:05:44;;;;;;;12.98;6.47;;;13.20;99.90;;;;;;5118486;28;20092;-72
2022/10/23 00:08:11;;;;;;;12.75;6.25;;;13.20;99.90;;;;;;5118362;28;20040;-73
2022/10/23 00:10:40;;;;;;;12.13;6.05;;;13.10;99.90;;;;;;5118384;28;20124;-72
2022/10/23 00:13:05;;;;;;;16.02;6.78;;;13.20;99.90;;;;;;5117785;28;20024;-73
2022/10/23 00:15:34;;;;;;;14.30;6.35;;;13.10;99.90;;;;;;5118280;28;20451;-73
2022/10/23 00:17:59;;;;;;;10.93;6.45;;;13.10;99.90;;;;;;5118182;28;20323;-73
2022/10/23 00:20:25;;;;;;;15.18;6.75;;;13.10;99.90;;;;;;5117990;28;20101;-72
2022/10/23 00:22:51;;;;;;;13.25;6.80;;;13.10;99.90;;;;;;5117555;28;20032;-72
2022/10/23 00:25:17;;;;;;;14.95;6.32;;;13.10;99.90;;;;;;5117811;28;20118;-72
2022/10/23 00:27:43;;;;;;;14.85;6.18;;;13.10;99.90;;;;;;5117758;28;20433;-72
2022/10/23 00:30:10;;;;;;;11.27;6.32;;;13.10;99.90;;;;;;5117690;28;20494;-73
2022/10/23 00:32:36;;;;;;;15.35;6.70;;;13.10;99.90;;;;;;5117625;28;20455;-72
2022/10/23 00:35:01;;;;;;;13.20;6.32;;;13.10;99.90;;;;;;5099844;28;20051;-72
2022/10/23 00:37:27;;;;;;;13.35;6.25;;;13.10;99.90;;;;;;5117587;28;20425;-73
2022/10/23 00:39:53;;;;;;;13.52;7.18;;;13.10;99.90;;;;;;5117784;28;20044;-73
2022/10/23 00:42:20;;;;;;;12.05;7.25;;;13.10;99.90;;;;;;5099187;28;20130;-72
2022/10/23 00:44:45;;;;;;;16.42;7.97;;;13.10;99.90;;;;;;5117737;28;20035;-72
2022/10/23 00:47:12;;;;;;;14.05;7.90;;;13.10;99.90;;;;;;5117474;28;20058;-72
2022/10/23 00:49:39;;;;;;;19.60;7.90;;;13.10;99.90;;;;;;5117731;28;20074;-72
2022/10/23 00:52:07;;;;;;;14.68;7.45;;;13.10;99.90;;;;;;5117656;28;20088;-72
2022/10/23 00:54:42;;;;;;;12.07;7.78;;;13.00;99.90;;;;;;5117628;28;20360;-72
2022/10/23 00:57:13;;;;;;;13.40;7.03;;;13.00;99.90;;;;;;5117615;28;20048;-73
2022/10/23 00:59:39;;;;;;;13.30;7.32;;;12.90;99.90;;;;;;5117534;28;20366;-72
2022/10/23 01:02:05;;;;;;;15.35;7.85;;;12.80;99.90;;;;;;5117442;28;20043;-72
2022/10/23 01:04:31;;;;;;;23.48;8.35;;;12.80;99.90;;;;;;5117156;28;20031;-73
2022/10/23 01:07:09;;;;;;;17.52;8.75;;;12.80;99.90;;;;;;5117409;28;20040;-72
2022/10/23 01:09:40;;;;;;;16.08;7.55;;;12.80;99.90;;;;;;5117387;28;20043;-72
2022/10/23 01:12:49;;;;;;;18.45;6.95;;;12.80;99.90;;;;;;5116622;28;20459;-73
2022/10/23 01:15:42;;;;;;;15.45;8.77;;;12.90;99.90;;;;;;5068944;28;20105;-73
2022/10/23 01:18:15;;;;;;;18.55;9.60;;;12.90;99.90;;;;;;5117342;28;20063;-73
2022/10/23 01:20:45;;;;;;;31.90;10.35;;;13.00;99.90;;;;;;5117342;28;20040;-72
2022/10/23 01:23:49;;;;;;;18.05;9.43;;;13.00;99.90;;;;;;5117198;28;20040;-74
2022/10/23 01:26:44;;;;;;;20.55;11.50;;;13.10;99.90;;;;;;5081115;28;20063;-72
2022/10/23 01:29:28;;;;;;;20.13;10.48;;;13.10;99.90;;;;;;5117213;28;20051;-73
2022/10/23 01:31:54;;;;;;;20.13;11.15;;;13.20;99.90;;;;;;5117192;28;20040;-72
2022/10/23 01:34:27;;;;;;;17.52;10.52;;;13.20;99.90;;;;;;5119723;28;20054;-73
2022/10/23 01:36:55;;;;;;;21.67;10.98;;;13.20;99.90;;;;;;5121415;28;20047;-73
2022/10/23 01:39:26;;;;;;;30.35;13.50;;;13.20;99.90;;;;;;5121294;28;20119;-73
2022/10/23 01:42:01;;;;;;;19.63;10.48;;;13.20;99.90;;;;;;5120942;28;20035;-73
2022/10/23 01:44:44;;;;;;;26.02;11.90;;;13.30;99.90;;;;;;5121286;28;20190;-73
2022/10/23 01:47:12;;;;;;;18.13;10.25;;;13.30;99.90;;;;;;5102860;28;20039;-73
2022/10/23 01:49:40;;;;;;;18.38;11.07;;;13.30;99.90;;;;;;5121150;28;20039;-72
2022/10/23 01:52:08;;;;;;;25.52;12.57;;;13.30;99.90;;;;;;5120823;28;20054;-73
2022/10/23 01:54:38;;;;;;;16.38;10.55;;;13.30;99.90;;;;;;5120749;28;20046;-72
2022/10/23 01:57:07;;;;;;;19.65;10.60;;;13.30;99.90;;;;;;5120986;28;20046;-72
2022/10/23 01:59:37;;;;;;;14.80;9.13;;;13.30;99.90;;;;;;5102498;28;20497;-72
2022/10/23 02:02:04;;;;;;;14.73;9.50;;;13.20;99.90;;;;;;5120628;28;20047;-72
2022/10/23 02:04:37;;;;;;;22.77;12.90;;;13.20;99.90;;;;;;5120871;28;20040;-72
2022/10/23 02:07:03;;;;;;;16.50;10.50;;;13.20;99.90;;;;;;5102833;28;20043;-73
2022/10/23 02:09:29;;;;;;;17.65;9.77;;;13.10;99.90;;;;;;5120784;28;20324;-72
2022/10/23 02:12:06;;;;;;;20.02;10.13;;;13.00;99.90;;;;;;5120029;28;20043;-73
2022/10/23 02:14:52;;;;;;;20.88;9.43;;;13.00;99.90;;;;;;5120695;28;20075;-72
2022/10/23 02:17:29;;;;;;;23.27;10.88;;;13.00;99.90;;;;;;5120380;28;20086;-74
2022/10/23 02:20:07;;;;;;;14.95;8.38;;;13.00;99.90;;;;;;5120522;28;20043;-73
2022/10/23 02:22:38;;;;;;;11.82;8.50;;;13.00;99.90;;;;;;5102184;28;20050;-72
2022/10/23 02:25:13;;;;;;;13.23;7.75;;;13.00;99.90;;;;;;5120288;28;20056;-73
2022/10/23 02:27:49;;;;;;;18.25;9.98;;;13.00;99.90;;;;;;5102412;28;20079;-72
2022/10/23 02:30:17;;;;;;;17.58;8.02;;;13.00;99.90;;;;;;5102081;28;20433;-73
2022/10/23 02:32:49;;;;;;;11.52;7.75;;;13.00;99.90;;;;;;5120390;28;20038;-73
2022/10/23 02:35:16;;;;;;;15.32;9.07;;;13.00;99.90;;;;;;5102534;28;20063;-73
2022/10/23 02:37:42;;;;;;;13.80;7.50;;;13.00;99.90;;;;;;5120241;28;20039;-73
2022/10/23 02:40:10;;;;;;;10.98;7.18;;;12.90;99.90;;;;;;5120047;28;20306;-73
2022/10/23 02:42:45;;;;;;;13.18;7.88;;;12.90;99.90;;;;;;5119729;28;20081;-73
2022/10/23 02:45:35;;;;;;;16.55;8.88;;;12.90;99.90;;;;;;5119557;28;20378;-73
2022/10/23 02:48:32;;;;;;;12.90;7.30;;;12.80;99.90;;;;;;5120091;28;20059;-72
2022/10/23 02:51:45;;;;;;;11.73;7.53;;;12.80;99.90;;;;;;5114665;28;20039;-73
2022/10/23 02:54:23;;;;;;;13.65;8.00;;;12.80;99.90;;;;;;5119917;28;20075;-72
2022/10/23 02:56:57;;;;;;;15.80;7.85;;;12.80;99.90;;;;;;5119596;28;20432;-72
2022/10/23 02:59:42;;;;;;;16.42;9.00;;;12.80;99.90;;;;;;5119812;28;20040;-72
2022/10/23 03:02:24;;;;;;;16.60;8.02;;;12.80;99.90;;;;;;5119503;28;20428;-73
2022/10/23 03:04:53;;;;;;;22.50;11.95;;;12.80;99.90;;;;;;5119456;28;20027;-73
2022/10/23 03:07:19;;;;;;;15.80;9.15;;;12.80;99.90;;;;;;5119651;28;20376;-73
2022/10/23 03:09:45;;;;;;;20.08;11.55;;;12.80;99.90;;;;;;5101358;28;20086;-72
2022/10/23 03:12:11;;;;;;;16.75;10.40;;;12.90;99.90;;;;;;5101212;28;20043;-73
2022/10/23 03:14:36;;;;;;;21.95;11.93;;;13.00;99.90;;;;;;5119705;28;20466;-73
2022/10/23 03:17:03;;;;;;;17.42;9.77;;;13.00;99.90;;;;;;5119522;28;20062;-73
2022/10/23 03:19:29;;;;;;;15.63;9.85;;;13.10;99.90;;;;;;5119348;28;20133;-73
2022/10/23 03:21:54;;;;;;;14.63;8.68;;;13.10;99.90;;;;;;5119424;28;20433;-73
2022/10/23 03:24:20;;;;;;;18.80;9.38;;;13.10;99.90;;;;;;5101402;28;20414;-73
2022/10/23 03:26:46;;;;;;;15.45;8.60;;;13.10;99.90;;;;;;5100869;28;20348;-72
2022/10/23 03:29:11;;;;;;;12.05;8.07;;;13.00;99.90;;;;;;5119282;28;20039;-73
2022/10/23 03:31:37;;;;;;;19.88;10.43;;;13.00;99.90;;;;;;5118939;28;20165;-72
2022/10/23 03:34:08;;;;;;;14.93;10.23;;;12.90;99.90;;;;;;5118828;28;20036;-72
2022/10/23 03:36:34;;;;;;;18.15;10.18;;;12.90;99.90;;;;;;5100776;28;20039;-73
2022/10/23 03:39:00;;;;;;;13.95;9.70;;;12.90;99.90;;;;;;5118951;28;20329;-72
2022/10/23 03:41:25;;;;;;;13.60;8.45;;;12.90;99.90;;;;;;5119006;28;20069;-73
2022/10/23 03:43:51;;;;;;;13.48;9.70;;;12.90;99.90;;;;;;5118545;28;20036;-73
2022/10/23 03:46:17;;;;;;;14.95;10.15;;;12.80;99.90;;;;;;5118906;28;20036;-73
2022/10/23 03:48:42;;;;;;;11.18;8.77;;;12.80;99.90;;;;;;5118817;28;20044;-73
2022/10/23 03:51:08;;;;;;;12.90;9.23;;;12.80;99.90;;;;;;5118555;28;20114;-72
2022/10/23 03:53:34;;;;;;;13.70;9.77;;;12.80;99.90;;;;;;5118735;28;20035;-72
2022/10/23 03:56:00;;;;;;;14.73;10.20;;;12.90;99.90;;;;;;5117936;28;20111;-73
2022/10/23 03:58:25;;;;;;;15.75;9.60;;;12.90;99.90;;;;;;5100633;28;20035;-72
2022/10/23 04:00:51;;;;;;;14.82;10.23;;;12.90;99.90;;;;;;5118613;28;20324;-72
2022/10/23 04:03:17;;;;;;;14.27;9.95;;;12.80;99.90;;;;;;5118263;28;20040;-73
2022/10/23 04:05:42;;;;;;;16.15;10.32;;;12.80;99.90;;;;;;5118438;28;20032;-72
2022/10/23 04:08:09;;;;;;;25.80;14.90;;;12.90;99.90;;;;;;5118162;28;20417;-73
2022/10/23 04:10:34;;;;;;;15.40;10.18;;;12.90;99.90;;;;;;5100211;28;20333;-72
2022/10/23 04:13:00;;;;;;;14.32;9.85;;;12.80;99.90;;;;;;5117355;28;20044;-73
2022/10/23 04:15:26;;;;;;;15.57;10.93;;;12.80;99.90;;;;;;5118017;28;20046;-73
2022/10/23 04:17:51;;;;;;;18.15;10.98;;;12.80;99.90;;;;;;5117748;28;20047;-73
2022/10/23 04:20:17;;;;;;;25.40;13.00;;;12.70;99.90;;;;;;5118169;28;20088;-73
2022/10/23 04:22:43;;;;;;;18.85;11.38;;;12.70;99.90;;;;;;5118086;28;20032;-72
2022/10/23 04:25:08;;;;;;;22.45;14.73;;;12.70;99.90;;;;;;5099792;28;20097;-73
2022/10/23 04:27:34;;;;;;;26.85;15.65;;;12.70;99.90;;;;;;5117814;28;20046;-72
2022/10/23 04:30:00;;;;;;;20.55;11.73;;;12.70;99.90;;;;;;5118041;28;20036;-74
2022/10/23 04:32:26;;;;;;;36.70;19.58;;;12.70;99.90;;;;;;5117761;28;20095;-72
2022/10/23 04:34:51;;;;;;;30.02;17.67;;;12.70;99.90;;;;;;5117673;28;20058;-73
2022/10/23 04:37:17;;;;;;;36.90;20.92;;;12.70;99.90;;;;;;5117924;28;20028;-73
2022/10/23 04:39:43;;;;;;;22.83;14.98;;;12.80;99.90;;;;;;5099587;28;20044;-73
2022/10/23 04:42:08;;;;;;;19.42;12.68;;;12.80;99.90;;;;;;5117428;28;20043;-73
2022/10/23 04:44:34;;;;;;;22.05;13.15;;;12.80;99.90;;;;;;5117828;28;20031;-73
2022/10/23 04:47:00;;;;;;;25.75;16.23;;;12.80;99.90;;;;;;5117801;28;20420;-73
2022/10/23 04:49:25;;;;;;;26.85;16.83;;;12.80;99.90;;;;;;5117732;28;20314;-72
2022/10/23 04:51:51;;;;;;;24.52;13.88;;;12.80;99.90;;;;;;5117694;28;20314;-72
2022/10/23 04:54:17;;;;;;;26.40;16.27;;;12.80;99.90;;;;;;5117594;28;20381;-73
2022/10/23 04:56:42;;;;;;;24.88;14.48;;;12.80;99.90;;;;;;5117625;28;20167;-72
2022/10/23 04:59:08;;;;;;;29.88;16.98;;;12.90;99.90;;;;;;5117534;28;20051;-73
2022/10/23 05:01:34;;;;;;;40.85;21.40;;;12.90;99.90;;;;;;5117545;28;20059;-72
2022/10/23 05:04:00;;;;;;;21.58;14.32;;;12.90;99.90;;;;;;5117463;28;20039;-72
2022/10/23 05:06:26;;;;;;;23.60;14.40;;;12.90;99.90;;;;;;5117431;28;20340;-73
2022/10/23 05:08:51;;;;;;;30.10;16.83;;;12.90;99.90;;;;;;5099119;28;20035;-73
2022/10/23 05:11:17;;;;;;;20.38;13.98;;;12.80;99.90;;;;;;5117902;28;20047;-73
2022/10/23 05:13:43;;;;;;;25.92;15.20;;;12.80;99.90;;;;;;5099067;28;20067;-73
2022/10/23 05:16:09;;;;;;;23.60;14.13;;;12.70;99.90;;;;;;5117008;28;20140;-73
2022/10/23 05:18:39;;;;;;;25.33;14.77;;;12.70;99.90;;;;;;5117482;28;20086;-73
2022/10/23 05:21:11;;;;;;;34.65;18.23;;;12.70;99.90;;;;;;5099056;28;20039;-72
2022/10/23 05:23:40;;;;;;;32.88;18.83;;;12.70;99.90;;;;;;5117278;28;20087;-72
2022/10/23 05:26:06;;;;;;;24.92;14.82;;;12.70;99.90;;;;;;5116815;28;20184;-73
2022/10/23 05:28:32;;;;;;;28.42;15.48;;;12.70;99.90;;;;;;5117195;28;20069;-73
2022/10/23 05:31:00;;;;;;;34.88;18.13;;;12.80;99.90;;;;;;5117173;28;20046;-73
2022/10/23 05:33:26;;;;;;;49.05;23.02;;;12.80;99.90;;;;;;5116845;28;20433;-73
2022/10/23 05:35:52;;;;;;;36.83;18.92;;;12.90;99.90;;;;;;5117136;28;20027;-72
2022/10/23 05:38:18;;;;;;;29.40;16.05;;;12.90;99.90;;;;;;5099208;28;20374;-72
2022/10/23 05:40:44;;;;;;;22.83;14.45;;;12.90;99.90;;;;;;5117017;28;20040;-72
2022/10/23 05:43:09;;;;;;;33.08;16.55;;;12.80;99.90;;;;;;5116683;28;20036;-72
2022/10/23 05:45:35;;;;;;;38.08;17.67;;;12.80;99.90;;;;;;5116836;28;20088;-72
2022/10/23 05:48:01;;;;;;;25.98;13.88;;;12.80;99.90;;;;;;5117017;28;20067;-73
2022/10/23 05:50:26;;;;;;;30.40;16.40;;;12.80;99.90;;;;;;5116698;28;20039;-72
2022/10/23 05:52:52;;;;;;;20.13;13.57;;;12.80;99.90;;;;;;5098970;28;20055;-72
2022/10/23 05:55:18;;;;;;;25.38;15.13;;;12.70;99.90;;;;;;5098667;28;20043;-72
2022/10/23 05:57:43;;;;;;;29.73;17.92;;;12.70;99.90;;;;;;5116943;28;20306;-72
2022/10/23 06:00:10;;;;;;;25.88;15.32;;;12.60;99.90;;;;;;5116844;28;20040;-72
2022/10/23 06:02:35;;;;;;;29.70;16.08;;;12.70;99.90;;;;;;5116522;28;20425;-73
2022/10/23 06:05:01;;;;;;;37.92;18.15;;;12.60;99.90;;;;;;5116894;28;20047;-72
2022/10/23 06:07:28;;;;;;;29.38;17.48;;;12.60;99.90;;;;;;5116609;28;20043;-72
2022/10/23 06:09:54;;;;;;;28.30;15.27;;;12.70;99.90;;;;;;5098561;28;20047;-72
2022/10/23 06:12:21;;;;;;;26.63;15.65;;;12.60;99.90;;;;;;5116088;28;20047;-73
2022/10/23 06:14:47;;;;;;;29.75;16.35;;;12.60;99.90;;;;;;5116780;28;20039;-72
2022/10/23 06:17:13;;;;;;;26.80;15.27;;;12.60;99.90;;;;;;5116801;28;20067;-73
2022/10/23 06:19:38;;;;;;;39.53;18.80;;;12.50;99.90;;;;;;5118201;28;20402;-72
2022/10/23 06:22:04;;;;;;;25.45;16.23;;;12.50;99.90;;;;;;5102552;28;20363;-72
2022/10/23 06:24:30;;;;;;;29.88;17.33;;;12.60;99.90;;;;;;5102546;28;20028;-72
2022/10/23 06:26:56;;;;;;;34.58;17.90;;;12.60;99.90;;;;;;5120089;28;20058;-72
2022/10/23 06:29:22;;;;;;;40.40;21.27;;;12.60;99.90;;;;;;5120176;28;20051;-72
2022/10/23 06:31:48;;;;;;;46.35;23.95;;;12.70;99.90;;;;;;5120354;28;20079;-72
2022/10/23 06:34:14;;;;;;;35.35;17.55;;;12.60;99.90;;;;;;5120023;28;20035;-73
2022/10/23 06:36:39;;;;;;;29.38;17.02;;;12.50;99.90;;;;;;5120277;28;20047;-73
2022/10/23 06:39:06;;;;;;;39.63;20.88;;;12.50;99.90;;;;;;5120178;28;20047;-73
2022/10/23 06:41:32;;;;;;;37.17;16.63;;;12.60;99.90;;;;;;5120192;28;20036;-72
2022/10/23 06:43:57;;;;;;;44.95;23.00;;;12.70;99.90;;;;;;5119410;28;20100;-72
2022/10/23 06:46:23;;;;;;;29.80;17.23;;;12.70;99.90;;;;;;5120128;28;20039;-72
2022/10/23 06:48:49;;;;;;;38.03;19.33;;;12.70;99.90;;;;;;5120049;28;20085;-72
2022/10/23 06:51:16;;;;;;;27.17;15.60;;;12.70;99.90;;;;;;5120035;28;20054;-72
2022/10/23 06:53:42;;;;;;;48.80;22.20;;;12.80;99.90;;;;;;5119925;28;20039;-72
2022/10/23 06:56:09;;;;;;;39.83;21.50;;;12.90;99.90;;;;;;5119918;28;20321;-72
2022/10/23 06:58:36;;;;;;;47.90;21.95;;;12.80;99.90;;;;;;5119757;28;20066;-73
2022/10/23 07:01:05;;;;;;;33.33;16.75;;;12.70;99.90;;;;;;5119802;28;20477;-73
2022/10/23 07:03:31;;;;;;;28.67;17.58;;;12.70;99.90;;;;;;5119788;28;20039;-73
2022/10/23 07:06:02;;;;;;;40.42;21.35;;;12.70;99.90;;;;;;5119373;28;20433;-72
2022/10/23 07:08:27;;;;;;;32.83;18.00;;;12.80;99.90;;;;;;5119646;28;20043;-73
2022/10/23 07:10:53;;;;;;;28.05;16.08;;;12.80;99.90;;;;;;5119640;28;20324;-72
2022/10/23 07:13:19;;;;;;;40.58;18.50;;;12.80;99.90;;;;;;5119181;28;20071;-73
2022/10/23 07:15:45;;;;;;;38.08;18.80;;;12.90;99.90;;;;;;5119232;28;20421;-73
2022/10/23 07:18:13;;;;;;;33.25;17.80;;;12.80;99.90;;;;;;5101114;28;20049;-73
2022/10/23 07:20:40;;;;;;;33.97;18.00;;;12.90;99.90;;;;;;5119357;28;20043;-73
2022/10/23 07:23:05;;;;;;;27.55;16.30;;;12.90;99.90;;;;;;5119391;28;20047;-72
2022/10/23 07:25:32;;;;;;;34.42;18.83;;;13.00;99.90;;;;;;5118920;28;20138;-74
2022/10/23 07:27:58;;;;;;;38.10;18.50;;;13.00;99.90;;;;;;5119891;28;20035;-74
2022/10/23 07:30:24;;;;;;;28.83;16.15;;;13.00;99.90;;;;;;5118472;28;20044;-73
2022/10/23 07:32:49;;;;;;;40.72;20.90;;;13.10;99.90;;;;;;5118544;28;20064;-73
2022/10/23 07:35:16;;;;;;;45.33;21.55;;;13.10;99.90;;;;;;5101270;28;20048;-73
2022/10/23 07:37:42;;;;;;;30.95;15.80;;;13.10;99.90;;;;;;5119127;28;20046;-73
2022/10/23 07:40:08;;;;;;;37.15;17.65;;;13.10;99.90;;;;;;5119018;28;20122;-73
2022/10/23 07:42:34;;;;;;;37.45;17.42;;;13.20;99.90;;;;;;5118659;28;20028;-74
2022/10/23 07:45:00;;;;;;;34.22;16.73;;;13.20;99.90;;;;;;5118991;28;20447;-73
2022/10/23 07:47:25;;;;;;;37.75;19.70;;;13.20;99.90;;;;;;5118619;28;20036;-73
2022/10/23 07:49:51;;;;;;;40.15;19.55;;;13.20;99.90;;;;;;5118584;28;20043;-74
2022/10/23 07:52:17;;;;;;;31.20;16.83;;;13.20;99.90;;;;;;5118823;28;20044;-73
2022/10/23 07:54:43;;;;;;;21.55;14.25;;;13.20;99.90;;;;;;5118787;28;20043;-74
2022/10/23 07:57:10;;;;;;;42.47;18.77;;;13.20;99.90;;;;;;5118393;28;20039;-74
2022/10/23 07:59:36;;;;;;;34.85;18.67;;;13.30;99.90;;;;;;5118569;28;20035;-74
2022/10/23 08:02:02;;;;;;;37.08;19.42;;;13.30;99.90;;;;;;5118344;28;20032;-73
2022/10/23 08:04:28;;;;;;;33.78;18.60;;;13.20;99.90;;;;;;5118547;28;20038;-73
2022/10/23 08:06:55;;;;;;;36.65;18.48;;;13.10;99.90;;;;;;5118593;28;20120;-74
2022/10/23 08:09:21;;;;;;;22.33;14.45;;;13.30;99.90;;;;;;5118521;28;20100;-71
2022/10/23 08:11:47;;;;;;;27.40;15.02;;;13.40;99.90;;;;;;5118440;28;20043;-71
2022/10/23 08:14:12;;;;;;;25.95;14.65;;;13.40;99.90;;;;;;5118058;28;20428;-71
2022/10/23 08:16:38;;;;;;;37.13;18.20;;;13.50;99.90;;;;;;5118378;28;20497;-71
2022/10/23 08:19:06;;;;;;;33.95;16.52;;;13.60;99.90;;;;;;5118205;28;20481;-72
2022/10/23 08:21:31;;;;;;;26.40;16.42;;;13.60;99.90;;;;;;5117916;28;20037;-71
2022/10/23 08:23:58;;;;;;;27.73;15.88;;;13.60;99.90;;;;;;5099957;28;20039;-71
2022/10/23 08:26:25;;;;;;;38.05;19.15;;;13.60;99.90;;;;;;5117764;28;20075;-71
2022/10/23 08:28:52;;;;;;;50.03;18.00;;;13.50;99.90;;;;;;5118103;28;20039;-71
2022/10/23 08:31:19;;;;;;;37.17;17.45;;;13.50;99.90;;;;;;5118093;28;20032;-71
2022/10/23 08:33:45;;;;;;;45.92;15.57;;;13.60;99.90;;;;;;5117690;28;20440;-71
2022/10/23 08:36:25;;;;;;;33.65;16.58;;;13.50;99.90;;;;;;5117986;28;20043;-71
2022/10/23 08:38:53;;;;;;;29.52;17.77;;;13.70;99.90;;;;;;5117852;28;20051;-71
2022/10/23 08:41:24;;;;;;;39.63;20.38;;;13.70;99.90;;;;;;5105584;28;20036;-71
2022/10/23 08:44:21;;;;;;;28.98;15.30;;;13.80;99.90;;;;;;5111033;28;20119;-74
2022/10/23 08:47:02;;;;;;;;;;;13.70;99.90;;;;;;5106830;28;20043;-71
2022/10/23 08:49:37;;;;;;;33.92;17.60;;;13.70;99.90;;;;;;5116480;28;19915;-71
2022/10/23 08:52:15;;;;;;;30.40;16.60;;;13.80;99.90;;;;;;5100119;28;20371;-72
2022/10/23 08:54:43;;;;;;;34.13;16.98;;;13.80;99.90;;;;;;5117668;28;20036;-71
2022/10/23 08:57:13;;;;;;;37.00;17.85;;;14.00;99.90;;;;;;5117420;28;20047;-73
2022/10/23 08:59:49;;;;;;;24.75;14.00;;;14.00;99.90;;;;;;5118389;28;20428;-74
2022/10/23 09:02:29;;;;;;;35.10;17.67;;;14.10;99.90;;;;;;5117576;28;20035;-73
2022/10/23 09:04:57;;;;;;;29.88;15.20;;;14.10;99.90;;;;;;5117251;28;20425;-72
2022/10/23 09:07:53;;;;;;;34.92;18.20;;;14.30;99.90;;;;;;5117152;28;20039;-73
2022/10/23 09:10:21;;;;;;;25.77;13.45;;;14.30;99.90;;;;;;5117534;28;20062;-72
2022/10/23 09:12:47;;;;;;;27.58;15.80;;;14.40;99.90;;;;;;5099071;28;20079;-73
2022/10/23 09:15:13;;;;;;;19.73;13.25;;;14.50;99.90;;;;;;5117393;28;20130;-73
2022/10/23 09:17:43;;;;;;;23.98;13.13;;;14.50;99.90;;;;;;5117319;28;20476;-73
2022/10/23 09:20:22;;;;;;;33.35;15.38;;;14.60;99.90;;;;;;5098986;28;20046;-73
2022/10/23 09:22:52;;;;;;;29.92;16.30;;;14.70;99.90;;;;;;5112803;28;20032;-74
2022/10/23 09:25:26;;;;;;;23.30;13.57;;;14.80;99.90;;;;;;5108076;28;20048;-72
2022/10/23 09:27:55;;;;;;;24.13;13.10;;;14.80;99.90;;;;;;5098757;28;20043;-72
2022/10/23 09:30:31;;;;;;;21.67;12.55;;;14.70;99.90;;;;;;5107006;28;20426;-72
2022/10/23 09:32:59;;;;;;;20.92;12.40;;;14.80;99.90;;;;;;5096691;28;20040;-72
2022/10/23 09:35:27;;;;;;;25.88;13.80;;;14.80;99.90;;;;;;5096626;28;20047;-72
2022/10/23 09:37:53;;;;;;;23.35;12.85;;;14.80;99.90;;;;;;5097185;28;20083;-73
2022/10/23 09:40:45;;;;;;;19.38;12.23;;;15.00;99.90;;;;;;5103929;28;20044;-72
2022/10/23 09:43:16;;;;;;;25.05;12.05;;;15.00;99.90;;;;;;5100584;28;20077;-79
2022/10/23 09:45:43;;;;;;;23.05;11.73;;;15.10;99.90;;;;;;5114773;28;20088;-73
2022/10/23 09:48:13;;;;;;;23.17;11.82;;;15.10;99.90;;;;;;5116458;28;20036;-72
2022/10/23 09:51:03;;;;;;;22.92;11.48;;;15.20;99.90;;;;;;5117267;28;20333;-72
2022/10/23 09:53:38;;;;;;;21.25;10.93;;;15.30;99.90;;;;;;5104595;28;20052;-72
2022/10/23 09:56:25;;;;;;;19.48;10.20;;;15.30;99.90;;;;;;5121109;28;20109;-72
2022/10/23 09:59:18;;;;;;;23.27;11.90;;;15.50;99.90;;;;;;5120253;28;20040;-72
2022/10/23 10:01:52;;;;;;;25.45;10.60;;;15.50;99.90;;;;;;5121062;28;20032;-72
2022/10/23 10:04:18;;;;;;;20.98;11.23;;;15.40;99.90;;;;;;5121049;28;20040;-72
2022/10/23 10:06:44;;;;;;;18.17;10.95;;;15.60;99.90;;;;;;5120583;28;20038;-72
2022/10/23 10:09:15;;;;;;;19.38;10.63;;;15.70;99.90;;;;;;5102837;28;20036;-72
2022/10/23 10:11:50;;;;;;;16.35;9.88;;;15.80;99.90;;;;;;5120581;28;20429;-72
2022/10/23 10:14:41;;;;;;;22.10;11.07;;;15.80;99.90;;;;;;5120410;28;20043;-72
2022/10/23 10:17:32;;;;;;;19.27;10.07;;;15.70;99.90;;;;;;5120798;28;20069;-72
2022/10/23 10:20:14;;;;;;;19.02;9.57;;;15.60;99.90;;;;;;5120609;28;20082;-72
2022/10/23 10:22:55;;;;;;;19.45;9.32;;;15.70;99.90;;;;;;5120602;28;20047;-73
2022/10/23 10:25:32;;;;;;;16.05;8.60;;;15.70;99.90;;;;;;5120011;28;20062;-88
2022/10/23 10:28:35;;;;;;;22.23;10.48;;;15.70;99.90;;;;;;5102381;28;20432;-73
2022/10/23 10:31:30;;;;;;;17.52;8.85;;;15.80;99.90;;;;;;5120451;28;20051;-72
2022/10/23 10:34:16;;;;;;;19.98;9.27;;;15.80;99.90;;;;;;5120418;28;20043;-72
2022/10/23 10:36:53;;;;;;;21.00;10.20;;;15.90;99.90;;;;;;5120088;28;20047;-73
2022/10/23 10:39:22;;;;;;;15.82;8.90;;;16.10;99.90;;;;;;5119932;28;20428;-73
2022/10/23 10:42:02;;;;;;;17.38;9.27;;;16.00;99.90;;;;;;5120284;28;20332;-73
2022/10/23 10:44:45;;;;;;;15.15;9.40;;;16.20;99.90;;;;;;5120174;28;20035;-73
2022/10/23 10:47:23;;;;;;;13.30;8.30;;;16.30;99.90;;;;;;5101888;28;20043;-74
2022/10/23 10:50:15;;;;;;;16.70;8.65;;;16.30;99.90;;;;;;5119763;28;20362;-73
2022/10/23 10:52:51;;;;;;;14.90;8.15;;;16.40;99.90;;;;;;5120079;28;20036;-73
2022/10/23 10:55:40;;;;;;;14.60;7.68;;;16.50;99.90;;;;;;5119972;28;20051;-73
2022/10/23 10:58:37;;;;;;;14.45;8.10;;;16.60;99.90;;;;;;5106502;28;20062;-73
2022/10/23 11:01:13;;;;;;;13.73;7.30;;;16.60;99.90;;;;;;5119925;28;20044;-74
2022/10/23 11:03:45;;;;;;;17.60;8.10;;;16.70;99.90;;;;;;5119834;28;20035;-73
2022/10/23 11:06:21;;;;;;;21.23;7.95;;;16.50;99.90;;;;;;5120118;28;20032;-74
2022/10/23 11:08:47;;;;;;;14.48;7.80;;;16.60;99.90;;;;;;5119778;28;20050;-73
2022/10/23 11:11:23;;;;;;;13.35;7.53;;;16.60;99.90;;;;;;5119678;28;20036;-73
2022/10/23 11:13:50;;;;;;;15.85;7.40;;;16.50;99.90;;;;;;5119323;28;20032;-73
2022/10/23 11:16:28;;;;;;;16.10;7.93;;;16.60;99.90;;;;;;5119607;28;20054;-73
2022/10/23 11:19:22;;;;;;;13.50;7.53;;;16.60;99.90;;;;;;5102715;28;20035;-78
2022/10/23 11:22:01;;;;;;;13.43;6.38;;;16.70;99.90;;;;;;5119255;28;20039;-75
2022/10/23 11:24:51;;;;;;;15.27;7.78;;;16.70;99.90;;;;;;5119450;28;20085;-75
2022/10/23 11:27:35;;;;;;;17.38;7.88;;;16.70;99.90;;;;;;5118015;28;20052;-74
2022/10/23 11:30:24;;;;;;;15.23;7.50;;;16.70;99.90;;;;;;5118258;28;20131;-74
2022/10/23 11:33:19;;;;;;;11.13;6.38;;;16.80;99.90;;;;;;5118200;28;20071;-74
2022/10/23 11:36:13;;;;;;;11.18;6.47;;;16.80;99.90;;;;;;5083351;28;20046;-73
2022/10/23 11:38:42;;;;;;;13.48;7.03;;;16.80;99.90;;;;;;5117795;28;20047;-72
2022/10/23 11:41:32;;;;;;;11.02;6.45;;;16.90;99.90;;;;;;5117686;28;20471;-71
2022/10/23 11:44:02;;;;;;;10.20;6.25;;;17.00;99.90;;;;;;5117633;28;20062;-71
2022/10/23 11:46:29;;;;;;;11.63;5.97;;;17.00;99.90;;;;;;5117618;28;20114;-72
2022/10/23 11:48:55;;;;;;;15.25;6.93;;;17.10;99.90;;;;;;5117917;28;20031;-72
2022/10/23 11:51:34;;;;;;;12.82;5.97;;;17.20;99.90;;;;;;5117899;28;20039;-72
2022/10/23 11:54:09;;;;;;;13.05;6.47;;;17.10;99.90;;;;;;5117563;28;20446;-72
2022/10/23 11:56:51;;;;;;;14.60;6.25;;;17.00;99.90;;;;;;5117843;28;20085;-72
2022/10/23 11:59:27;;;;;;;14.85;6.07;;;16.70;99.90;;;;;;5117771;28;20071;-72
2022/10/23 12:01:54;;;;;;;14.48;5.60;;;16.70;99.90;;;;;;5117476;28;20428;-72
2022/10/23 12:04:45;;;;;;;10.23;6.10;;;16.80;99.90;;;;;;5117662;28;20074;-72
2022/10/23 12:07:39;;;;;;;12.93;6.07;;;16.80;99.90;;;;;;5117698;28;20118;-72
2022/10/23 12:10:28;;;;;;;15.38;6.97;;;16.70;99.90;;;;;;5114486;28;20116;-71
2022/10/23 12:13:04;;;;;;;13.77;6.72;;;16.70;99.90;;;;;;5119596;28;20035;-71
2022/10/23 12:15:33;;;;;;;15.90;7.13;;;16.80;99.90;;;;;;5117598;28;20044;-70
2022/10/23 12:18:28;;;;;;;14.88;6.70;;;16.80;99.90;;;;;;5116487;28;20044;-70
2022/10/23 12:21:02;;;;;;;11.85;6.55;;;16.70;99.90;;;;;;5096063;28;20051;-71
2022/10/23 12:24:03;;;;;;;15.38;7.05;;;16.70;99.90;;;;;;5117445;28;20074;-69
2022/10/23 12:26:34;;;;;;;11.07;5.85;;;16.80;99.90;;;;;;5010769;28;125932;-67
2022/10/23 12:29:22;;;;;;;12.95;6.70;;;16.90;99.90;;;;;;5098948;28;20071;-67
2022/10/23 12:32:02;;;;;;;10.77;6.95;;;16.80;99.90;;;;;;5117811;28;20412;-67
2022/10/23 12:34:41;;;;;;;13.93;6.47;;;16.60;99.90;;;;;;5118085;28;20046;-86
2022/10/23 12:37:23;;;;;;;14.40;6.18;;;16.50;99.90;;;;;;5100020;28;20047;-87
2022/10/23 12:39:55;;;;;;;16.30;6.75;;;16.40;99.90;;;;;;5100151;28;20066;-89
2022/10/23 12:42:23;;;;;;;12.95;6.40;;;16.30;99.90;;;;;;5082917;28;20047;-90
2022/10/23 12:45:01;;;;;;;21.50;6.38;;;16.30;99.90;;;;;;5083389;28;20070;-88
2022/10/23 12:47:28;;;;;;;15.27;5.40;;;16.30;99.90;;;;;;5099949;28;20072;-88
2022/10/23 12:49:54;;;;;;;10.30;5.70;;;16.20;99.90;;;;;;5083277;28;20043;-73
2022/10/23 12:52:20;;;;;;;14.15;6.03;;;16.30;99.90;;;;;;5099530;28;20039;-77